sensor_id;sensor_type;location;lat;lon;timestamp;temperature;humidity
55203;DHT22;41077;52.956;6.796;2023-05-07T09:13:59;17.60;99.90
55203;DHT22;41077;52.956;6.796;2023-05-07T09:16:27;14.80;99.90
55203;DHT22;41077;52.956;6.796;2023-05-07T09:18:54;14.80;99.90
55203;DHT22;41077;52.956;6.796;2023-05-07T09:21:21;14.90;99.90
55203;DHT22;41077;52.956;6.796;2023-05-07T09:23:52;15.00;99.90
55203;DHT22;41077;52.956;6.796;2023-05-07T09:26:18;15.10;99.90
55203;DHT22;41077;52.956;6.796;2023-05-07T09:28:46;15.20;99.90
55203;DHT22;41077;52.956;6.796;2023-05-07T09:31:12;15.30;99.90
55203;DHT22;41077;52.956;6.796;2023-05-07T09:33:39;15.30;99.90
55203;DHT22;41077;52.956;6.796;2023-05-07T09:36:06;15.30;99.90
55203;DHT22;41077;52.956;6.796;2023-05-07T09:38:33;15.30;99.90
55203;DHT22;41077;52.956;6.796;2023-05-07T09:41:07;15.30;99.90
55203;DHT22;41077;52.956;6.796;2023-05-07T09:43:35;15.40;99.90
55203;DHT22;41077;52.956;6.796;2023-05-07T09:46:06;15.40;99.90
55203;DHT22;41077;52.956;6.796;2023-05-07T09:48:37;15.50;99.90
55203;DHT22;41077;52.956;6.796;2023-05-07T09:51:15;15.60;99.90
55203;DHT22;41077;52.956;6.796;2023-05-07T09:53:43;15.60;99.90
55203;DHT22;41077;52.956;6.796;2023-05-07T09:56:13;15.60;99.90
55203;DHT22;41077;52.956;6.796;2023-05-07T09:58:40;15.70;99.90
55203;DHT22;41077;52.956;6.796;2023-05-07T10:01:07;15.70;99.90
55203;DHT22;41077;52.956;6.796;2023-05-07T10:03:33;15.70;99.90
55203;DHT22;41077;52.956;6.796;2023-05-07T10:06:00;15.80;99.90
55203;DHT22;41077;52.956;6.796;2023-05-07T10:08:26;15.90;99.90
55203;DHT22;41077;52.956;6.796;2023-05-07T10:10:52;16.10;99.90
55203;DHT22;41077;52.956;6.796;2023-05-07T10:13:21;16.20;99.90
55203;DHT22;41077;52.956;6.796;2023-05-07T10:15:47;16.30;99.90
55203;DHT22;41077;52.956;6.796;2023-05-07T10:18:14;16.50;99.90
55203;DHT22;41077;52.956;6.796;2023-05-07T10:20:43;16.70;99.90
55203;DHT22;41077;52.956;6.796;2023-05-07T10:23:13;17.00;99.90
55203;DHT22;41077;52.956;6.796;2023-05-07T10:25:40;17.10;99.90
55203;DHT22;41077;52.956;6.796;2023-05-07T10:28:08;17.10;99.90
55203;DHT22;41077;52.956;6.796;2023-05-07T10:33:35;17.20;99.90
55203;DHT22;41077;52.956;6.796;2023-05-07T10:36:02;17.20;99.90
55203;DHT22;41077;52.956;6.796;2023-05-07T10:38:29;17.50;99.90
55203;DHT22;41077;52.956;6.796;2023-05-07T10:40:55;17.40;99.90
55203;DHT22;41077;52.956;6.796;2023-05-07T10:43:21;17.40;99.90
55203;DHT22;41077;52.956;6.796;2023-05-07T10:46:15;17.50;99.90
55203;DHT22;41077;52.956;6.796;2023-05-07T10:51:29;17.70;99.90
55203;DHT22;41077;52.956;6.796;2023-05-07T10:56:41;17.70;99.90
55203;DHT22;41077;52.956;6.796;2023-05-07T11:02:05;18.00;99.90
55203;DHT22;41077;52.956;6.796;2023-05-07T11:04:33;18.10;99.90
55203;DHT22;41077;52.956;6.796;2023-05-07T11:09:54;18.00;99.90
55203;DHT22;41077;52.956;6.796;2023-05-07T11:15:04;18.00;99.90
55203;DHT22;41077;52.956;6.796;2023-05-07T11:17:30;17.90;99.90
55203;DHT22;41077;52.956;6.796;2023-05-07T11:20:01;18.00;99.90
55203;DHT22;41077;52.956;6.796;2023-05-07T11:25:00;18.10;99.90
55203;DHT22;41077;52.956;6.796;2023-05-07T11:27:26;18.20;99.90
55203;DHT22;41077;52.956;6.796;2023-05-07T11:29:53;18.40;99.90
55203;DHT22;41077;52.956;6.796;2023-05-07T11:32:26;18.50;99.90
55203;DHT22;41077;52.956;6.796;2023-05-07T11:34:57;18.50;99.90
55203;DHT22;41077;52.956;6.796;2023-05-07T11:37:24;18.50;99.90
55203;DHT22;41077;52.956;6.796;2023-05-07T11:39:50;18.50;99.90
55203;DHT22;41077;52.956;6.796;2023-05-07T11:42:37;18.50;99.90
55203;DHT22;41077;52.956;6.796;2023-05-07T11:45:03;18.50;99.90
55203;DHT22;41077;52.956;6.796;2023-05-07T11:47:30;18.40;99.90
55203;DHT22;41077;52.956;6.796;2023-05-07T11:49:56;18.40;99.90
55203;DHT22;41077;52.956;6.796;2023-05-07T11:52:23;18.50;99.90
55203;DHT22;41077;52.956;6.796;2023-05-07T11:54:50;18.70;99.90
55203;DHT22;41077;52.956;6.796;2023-05-07T11:57:16;18.80;99.90
55203;DHT22;41077;52.956;6.796;2023-05-07T11:59:42;19.00;99.90
55203;DHT22;41077;52.956;6.796;2023-05-07T12:02:17;19.20;99.90
55203;DHT22;41077;52.956;6.796;2023-05-07T12:04:44;19.50;99.90
55203;DHT22;41077;52.956;6.796;2023-05-07T12:07:16;20.10;99.90
55203;DHT22;41077;52.956;6.796;2023-05-07T12:09:44;20.60;99.90
55203;DHT22;41077;52.956;6.796;2023-05-07T12:12:10;21.00;99.90
55203;DHT22;41077;52.956;6.796;2023-05-07T12:14:40;21.30;99.90
55203;DHT22;41077;52.956;6.796;2023-05-07T12:17:10;21.40;99.90
55203;DHT22;41077;52.956;6.796;2023-05-07T12:19:38;21.30;99.90
55203;DHT22;41077;52.956;6.796;2023-05-07T12:22:04;21.30;99.90
55203;DHT22;41077;52.956;6.796;2023-05-07T12:24:46;21.30;99.90
55203;DHT22;41077;52.956;6.796;2023-05-07T12:27:13;21.30;99.90
55203;DHT22;41077;52.956;6.796;2023-05-07T12:29:38;21.40;99.90
55203;DHT22;41077;52.956;6.796;2023-05-07T12:32:06;21.60;99.90
55203;DHT22;41077;52.956;6.796;2023-05-07T12:34:32;21.70;99.90
55203;DHT22;41077;52.956;6.796;2023-05-07T12:37:02;21.60;99.90
55203;DHT22;41077;52.956;6.796;2023-05-07T12:39:28;21.70;99.90
55203;DHT22;41077;52.956;6.796;2023-05-07T12:41:58;21.90;99.90
55203;DHT22;41077;52.956;6.796;2023-05-07T12:44:29;22.40;99.90
55203;DHT22;41077;52.956;6.796;2023-05-07T12:46:55;22.80;99.90
55203;DHT22;41077;52.956;6.796;2023-05-07T12:49:21;22.80;99.90
55203;DHT22;41077;52.956;6.796;2023-05-07T12:51:47;22.50;99.90
55203;DHT22;41077;52.956;6.796;2023-05-07T12:54:33;22.10;99.90
55203;DHT22;41077;52.956;6.796;2023-05-07T12:57:09;21.90;99.90
55203;DHT22;41077;52.956;6.796;2023-05-07T12:59:39;21.90;99.90
55203;DHT22;41077;52.956;6.796;2023-05-07T13:02:06;22.10;99.90
55203;DHT22;41077;52.956;6.796;2023-05-07T13:04:32;22.00;99.90
55203;DHT22;41077;52.956;6.796;2023-05-07T13:06:59;21.90;99.90
55203;DHT22;41077;52.956;6.796;2023-05-07T13:09:25;21.60;99.90
55203;DHT22;41077;52.956;6.796;2023-05-07T13:11:51;21.40;99.90
55203;DHT22;41077;52.956;6.796;2023-05-07T13:14:16;21.20;99.90
55203;DHT22;41077;52.956;6.796;2023-05-07T13:16:42;21.00;99.90
55203;DHT22;41077;52.956;6.796;2023-05-07T13:19:08;20.80;99.90
55203;DHT22;41077;52.956;6.796;2023-05-07T13:21:33;20.60;99.90
55203;DHT22;41077;52.956;6.796;2023-05-07T13:23:59;20.50;99.90
55203;DHT22;41077;52.956;6.796;2023-05-07T13:26:25;20.50;99.90
55203;DHT22;41077;52.956;6.796;2023-05-07T13:28:52;20.40;99.90
55203;DHT22;41077;52.956;6.796;2023-05-07T13:31:18;20.30;99.90
55203;DHT22;41077;52.956;6.796;2023-05-07T13:33:44;20.20;99.90
55203;DHT22;41077;52.956;6.796;2023-05-07T13:36:09;20.30;99.90
55203;DHT22;41077;52.956;6.796;2023-05-07T13:38:35;20.40;99.90
55203;DHT22;41077;52.956;6.796;2023-05-07T13:41:01;20.50;99.90
55203;DHT22;41077;52.956;6.796;2023-05-07T13:43:27;20.30;99.90
55203;DHT22;41077;52.956;6.796;2023-05-07T13:45:52;20.30;99.90
55203;DHT22;41077;52.956;6.796;2023-05-07T13:48:18;20.10;99.90
55203;DHT22;41077;52.956;6.796;2023-05-07T13:50:44;20.00;99.90
55203;DHT22;41077;52.956;6.796;2023-05-07T13:53:10;20.00;99.90
55203;DHT22;41077;52.956;6.796;2023-05-07T13:55:35;20.00;99.90
55203;DHT22;41077;52.956;6.796;2023-05-07T13:58:02;20.10;99.90
55203;DHT22;41077;52.956;6.796;2023-05-07T14:00:28;20.20;99.90
55203;DHT22;41077;52.956;6.796;2023-05-07T14:02:55;20.50;99.90
55203;DHT22;41077;52.956;6.796;2023-05-07T14:05:22;20.60;99.90
55203;DHT22;41077;52.956;6.796;2023-05-07T14:07:51;20.80;99.90
55203;DHT22;41077;52.956;6.796;2023-05-07T14:10:17;21.00;99.90
55203;DHT22;41077;52.956;6.796;2023-05-07T14:12:44;21.30;99.90
55203;DHT22;41077;52.956;6.796;2023-05-07T14:15:10;21.60;99.90
55203;DHT22;41077;52.956;6.796;2023-05-07T14:17:36;21.60;99.90
55203;DHT22;41077;52.956;6.796;2023-05-07T14:20:02;21.70;99.90
55203;DHT22;41077;52.956;6.796;2023-05-07T14:22:28;21.80;99.90
55203;DHT22;41077;52.956;6.796;2023-05-07T14:24:57;21.70;99.90
55203;DHT22;41077;52.956;6.796;2023-05-07T14:27:23;21.30;99.90
55203;DHT22;41077;52.956;6.796;2023-05-07T14:29:49;21.10;99.90
55203;DHT22;41077;52.956;6.796;2023-05-07T14:32:17;20.80;99.90
55203;DHT22;41077;52.956;6.796;2023-05-07T14:34:44;20.60;99.90
55203;DHT22;41077;52.956;6.796;2023-05-07T14:37:09;20.60;99.90
55203;DHT22;41077;52.956;6.796;2023-05-07T14:39:35;20.50;99.90
55203;DHT22;41077;52.956;6.796;2023-05-07T14:42:01;20.30;99.90
55203;DHT22;41077;52.956;6.796;2023-05-07T14:44:27;20.10;99.90
55203;DHT22;41077;52.956;6.796;2023-05-07T14:46:52;19.90;99.90
55203;DHT22;41077;52.956;6.796;2023-05-07T14:49:18;19.80;99.90
55203;DHT22;41077;52.956;6.796;2023-05-07T14:51:45;19.70;99.90
55203;DHT22;41077;52.956;6.796;2023-05-07T14:54:11;19.60;99.90
55203;DHT22;41077;52.956;6.796;2023-05-07T14:56:37;19.60;99.90
55203;DHT22;41077;52.956;6.796;2023-05-07T14:59:03;19.50;99.90
55203;DHT22;41077;52.956;6.796;2023-05-07T15:01:29;19.50;99.90
55203;DHT22;41077;52.956;6.796;2023-05-07T15:03:55;19.60;99.90
55203;DHT22;41077;52.956;6.796;2023-05-07T15:06:21;19.60;99.90
55203;DHT22;41077;52.956;6.796;2023-05-07T15:08:47;19.50;99.90
55203;DHT22;41077;52.956;6.796;2023-05-07T15:11:14;19.60;99.90
55203;DHT22;41077;52.956;6.796;2023-05-07T15:13:41;19.60;99.90
55203;DHT22;41077;52.956;6.796;2023-05-07T15:16:07;19.60;99.90
55203;DHT22;41077;52.956;6.796;2023-05-07T15:18:32;19.60;99.90
55203;DHT22;41077;52.956;6.796;2023-05-07T15:20:58;19.60;99.90
55203;DHT22;41077;52.956;6.796;2023-05-07T15:23:24;19.60;99.90
55203;DHT22;41077;52.956;6.796;2023-05-07T15:25:49;19.60;99.90
55203;DHT22;41077;52.956;6.796;2023-05-07T15:28:15;19.70;99.90
55203;DHT22;41077;52.956;6.796;2023-05-07T15:30:41;19.80;99.90
55203;DHT22;41077;52.956;6.796;2023-05-07T15:33:06;19.80;99.90
55203;DHT22;41077;52.956;6.796;2023-05-07T15:35:32;19.80;99.90
55203;DHT22;41077;52.956;6.796;2023-05-07T15:37:58;19.90;99.90
55203;DHT22;41077;52.956;6.796;2023-05-07T15:40:24;20.10;99.90
55203;DHT22;41077;52.956;6.796;2023-05-07T15:42:50;20.70;99.90
55203;DHT22;41077;52.956;6.796;2023-05-07T15:45:19;21.20;99.90
55203;DHT22;41077;52.956;6.796;2023-05-07T15:47:45;21.80;99.90
55203;DHT22;41077;52.956;6.796;2023-05-07T15:50:11;22.00;99.90
55203;DHT22;41077;52.956;6.796;2023-05-07T15:52:37;22.50;99.90
55203;DHT22;41077;52.956;6.796;2023-05-07T15:55:04;22.90;99.90
55203;DHT22;41077;52.956;6.796;2023-05-07T15:57:31;23.00;99.90
55203;DHT22;41077;52.956;6.796;2023-05-07T15:59:57;23.10;99.90
55203;DHT22;41077;52.956;6.796;2023-05-07T16:02:23;23.40;99.90
55203;DHT22;41077;52.956;6.796;2023-05-07T16:04:49;23.50;99.90
55203;DHT22;41077;52.956;6.796;2023-05-07T16:07:14;23.40;99.90
55203;DHT22;41077;52.956;6.796;2023-05-07T16:09:40;23.50;99.90
55203;DHT22;41077;52.956;6.796;2023-05-07T16:12:07;23.60;99.80
55203;DHT22;41077;52.956;6.796;2023-05-07T16:14:33;23.80;99.40
55203;DHT22;41077;52.956;6.796;2023-05-07T16:16:58;24.10;98.80
55203;DHT22;41077;52.956;6.796;2023-05-07T16:19:24;24.10;98.20
55203;DHT22;41077;52.956;6.796;2023-05-07T16:21:50;24.00;97.10
55203;DHT22;41077;52.956;6.796;2023-05-07T16:24:16;23.70;97.90
55203;DHT22;41077;52.956;6.796;2023-05-07T16:26:41;23.70;97.70
55203;DHT22;41077;52.956;6.796;2023-05-07T16:29:07;23.80;96.70
55203;DHT22;41077;52.956;6.796;2023-05-07T16:31:33;23.90;96.80
55203;DHT22;41077;52.956;6.796;2023-05-07T16:33:59;24.10;96.70
55203;DHT22;41077;52.956;6.796;2023-05-07T16:36:28;24.70;96.80
55203;DHT22;41077;52.956;6.796;2023-05-07T16:38:54;25.20;95.90
55203;DHT22;41077;52.956;6.796;2023-05-07T16:41:20;25.50;95.30
55203;DHT22;41077;52.956;6.796;2023-05-07T16:43:46;25.90;94.60
55203;DHT22;41077;52.956;6.796;2023-05-07T16:46:12;26.30;93.30
55203;DHT22;41077;52.956;6.796;2023-05-07T16:48:38;26.50;92.90
55203;DHT22;41077;52.956;6.796;2023-05-07T16:51:03;26.90;91.80
55203;DHT22;41077;52.956;6.796;2023-05-07T16:53:31;26.90;90.40
55203;DHT22;41077;52.956;6.796;2023-05-07T16:55:57;26.20;90.20
55203;DHT22;41077;52.956;6.796;2023-05-07T16:58:23;25.40;90.60
55203;DHT22;41077;52.956;6.796;2023-05-07T17:00:48;24.30;91.40
55203;DHT22;41077;52.956;6.796;2023-05-07T17:03:14;23.60;92.40
55203;DHT22;41077;52.956;6.796;2023-05-07T17:05:40;23.00;93.70
55203;DHT22;41077;52.956;6.796;2023-05-07T17:08:06;22.50;94.70
55203;DHT22;41077;52.956;6.796;2023-05-07T17:10:31;22.10;95.40
